createdAt,value
2022-11-24T00:03:39.661Z,13.36
2022-11-24T00:09:22.987Z,13.35
2022-11-24T00:15:06.587Z,13.34
2022-11-24T00:20:55.430Z,13.32
2022-11-24T00:26:38.391Z,13.36
2022-11-24T00:32:21.498Z,13.36
2022-11-24T00:38:04.745Z,13.35
2022-11-24T00:43:47.785Z,13.34
2022-11-24T00:49:31.038Z,13.34
2022-11-24T00:55:14.093Z,13.37
2022-11-24T01:01:01.239Z,13.37
2022-11-24T01:06:44.386Z,13.36
2022-11-24T01:12:27.704Z,13.35
2022-11-24T01:18:10.717Z,13.34
2022-11-24T01:23:53.908Z,13.33
2022-11-24T01:29:37.027Z,13.36
2022-11-24T01:35:20.094Z,13.35
2022-11-24T01:41:07.050Z,13.34
2022-11-24T01:46:52.218Z,13.34
2022-11-24T01:52:37.683Z,13.34
2022-11-24T01:58:23.579Z,13.36
2022-11-24T02:04:09.808Z,13.37
2022-11-24T02:09:55.610Z,13.38
2022-11-24T02:15:39.603Z,13.39
2022-11-24T02:21:23.005Z,13.39
2022-11-24T02:27:06.147Z,13.4
2022-11-24T02:32:49.816Z,13.39
2022-11-24T02:38:34.465Z,13.39
2022-11-24T02:44:19.943Z,13.41
2022-11-24T02:50:03.345Z,13.42
2022-11-24T02:55:47.607Z,13.45
2022-11-24T03:01:30.743Z,13.46
2022-11-24T03:07:15.130Z,13.47
2022-11-24T03:12:58.213Z,13.46
2022-11-24T03:18:41.355Z,13.47
2022-11-24T03:24:24.371Z,13.48
2022-11-24T03:30:08.158Z,13.51
2022-11-24T03:35:51.092Z,13.48
2022-11-24T03:41:34.194Z,13.44
2022-11-24T03:47:17.074Z,13.47
2022-11-24T03:52:59.986Z,13.43
2022-11-24T03:58:43.058Z,13.4
2022-11-24T04:04:26.252Z,13.38
2022-11-24T04:10:09.784Z,13.34
2022-11-24T04:15:53.280Z,13.32
2022-11-24T04:21:37.413Z,13.3
2022-11-24T04:27:20.480Z,13.31
2022-11-24T04:33:03.593Z,13.31
2022-11-24T04:39:20.614Z,13.3
2022-11-24T04:44:49.542Z,13.34
2022-11-24T04:50:32.694Z,13.32
2022-11-24T04:56:15.637Z,13.31
2022-11-24T05:01:59.023Z,13.29
2022-11-24T05:07:42.597Z,13.26
2022-11-24T05:13:25.992Z,13.24
2022-11-24T05:19:09.972Z,13.2
2022-11-24T05:24:53.893Z,13.2
2022-11-24T05:30:37.333Z,13.2
2022-11-24T05:36:20.427Z,13.18
2022-11-24T05:42:04.433Z,13.19
2022-11-24T05:47:48.171Z,13.19
2022-11-24T05:53:30.965Z,13.19
2022-11-24T05:59:13.878Z,13.16
2022-11-24T06:04:57.129Z,13.14
2022-11-24T06:10:40.079Z,13.11
2022-11-24T06:16:23.283Z,13.09
2022-11-24T06:22:06.722Z,13.09
2022-11-24T06:27:49.794Z,13.08
2022-11-24T06:33:36.433Z,13.06
2022-11-24T06:39:19.608Z,13.05
2022-11-24T06:45:06.062Z,13.11
2022-11-24T06:50:52.377Z,13.11
2022-11-24T06:56:35.750Z,13.07
2022-11-24T07:02:18.941Z,13.01
2022-11-24T07:08:02.477Z,12.99
2022-11-24T07:13:46.053Z,12.96
2022-11-24T07:19:29.071Z,12.93
2022-11-24T07:25:12.373Z,12.93
2022-11-24T07:30:55.537Z,12.95
2022-11-24T07:36:38.876Z,12.97
2022-11-24T07:42:24.814Z,12.98
2022-11-24T07:48:07.988Z,13.01
2022-11-24T07:53:50.959Z,13.04
2022-11-24T07:59:33.871Z,13.09
2022-11-24T08:05:17.055Z,13.1
2022-11-24T08:11:03.718Z,13.15
2022-11-24T08:16:46.862Z,13.16
2022-11-24T08:22:30.256Z,13.19
2022-11-24T08:28:14.556Z,13.22
2022-11-24T08:33:58.809Z,13.32
2022-11-24T08:39:41.801Z,13.29
2022-11-24T08:45:25.776Z,13.28
2022-11-24T08:51:23.183Z,13.34
2022-11-24T08:57:06.630Z,13.38
2022-11-24T09:02:52.020Z,13.41
2022-11-24T09:08:35.263Z,13.43
2022-11-24T09:14:19.357Z,13.46
2022-11-24T09:20:02.290Z,13.51
2022-11-24T09:25:45.293Z,13.56
2022-11-24T09:31:30.705Z,13.64
2022-11-24T09:37:14.076Z,13.66
2022-11-24T09:43:00.246Z,13.68
2022-11-24T09:48:46.080Z,13.72
2022-11-24T09:54:30.302Z,13.76
2022-11-24T10:00:14.738Z,13.8
2022-11-24T10:05:58.976Z,13.84
2022-11-24T10:11:43.974Z,13.89
2022-11-24T10:17:34.059Z,13.97
2022-11-24T10:23:24.904Z,14.01
2022-11-24T10:29:16.674Z,14.08
2022-11-24T10:35:02.646Z,14.21
2022-11-24T10:40:56.824Z,14.24
2022-11-24T10:46:41.036Z,14.31
2022-11-24T10:52:24.618Z,14.35
2022-11-24T10:58:17.435Z,14.42
2022-11-24T11:04:00.387Z,14.5
2022-11-24T11:09:43.293Z,14.55
2022-11-24T11:15:29.644Z,14.62
2022-11-24T11:21:17.971Z,14.72
2022-11-24T11:27:05.223Z,14.77
2022-11-24T11:38:58.356Z,14.96
2022-11-24T11:44:45.267Z,14.99
2022-11-24T11:50:32.500Z,15.06
2022-11-24T11:56:32.969Z,15.14
2022-11-24T12:02:24.963Z,15.18
2022-11-24T12:08:20.632Z,15.27
2022-11-24T12:14:11.510Z,15.44
2022-11-24T12:20:03.028Z,15.59
2022-11-24T12:25:49.239Z,15.71
2022-11-24T12:31:37.306Z,15.73
2022-11-24T12:37:28.196Z,15.74
2022-11-24T12:43:15.762Z,15.77
2022-11-24T12:49:04.337Z,15.79
2022-11-24T12:54:47.564Z,15.83
2022-11-24T13:00:34.434Z,15.87
2022-11-24T13:06:19.642Z,15.92
2022-11-24T13:12:13.499Z,15.97
2022-11-24T13:18:07.054Z,16.02
2022-11-24T13:23:59.685Z,16.05
2022-11-24T13:29:43.272Z,16.11
2022-11-24T13:35:26.475Z,16.16
2022-11-24T13:41:27.971Z,16.21
2022-11-24T13:47:16.305Z,16.31
2022-11-24T13:53:05.062Z,16.39
2022-11-24T13:58:49.386Z,16.45
2022-11-24T14:04:33.197Z,16.46
2022-11-24T14:10:19.749Z,16.44
2022-11-24T14:16:05.063Z,16.41
2022-11-24T14:21:49.149Z,16.33
2022-11-24T14:27:35.553Z,16.3
2022-11-24T14:33:19.836Z,16.27
2022-11-24T14:39:04.989Z,16.28
2022-11-24T14:44:50.150Z,16.24
2022-11-24T14:50:33.362Z,16.23
2022-11-24T14:56:27.361Z,16.26
2022-11-24T15:02:21.315Z,16.25
2022-11-24T15:08:04.720Z,16.24
2022-11-24T15:13:54.439Z,16.14
2022-11-24T15:19:39.411Z,16.06
2022-11-24T15:25:32.845Z,15.94
2022-11-24T15:31:16.187Z,15.87
2022-11-24T15:37:00.008Z,15.75
2022-11-24T15:42:44.020Z,15.63
2022-11-24T15:48:26.954Z,15.55
2022-11-24T15:54:12.811Z,15.46
2022-11-24T15:59:55.873Z,15.39
2022-11-24T16:05:39.119Z,15.28
2022-11-24T16:11:22.664Z,15.19
2022-11-24T16:17:05.791Z,15.11
2022-11-24T16:22:50.369Z,15.01
2022-11-24T16:28:34.796Z,14.98
2022-11-24T16:34:18.924Z,14.9
2022-11-24T16:40:02.293Z,14.86
2022-11-24T16:45:45.819Z,14.81
2022-11-24T16:51:34.365Z,14.76
2022-11-24T16:57:17.870Z,14.75
2022-11-24T17:03:00.851Z,14.68
2022-11-24T17:08:45.131Z,14.64
2022-11-24T17:14:28.650Z,14.58
2022-11-24T17:20:12.257Z,14.52
2022-11-24T17:26:00.232Z,14.51
2022-11-24T17:31:43.283Z,14.48
2022-11-24T17:37:26.834Z,14.45
2022-11-24T17:43:10.149Z,14.43
2022-11-24T17:48:53.621Z,14.36
2022-11-24T17:54:46.207Z,14.34
2022-11-24T18:00:29.827Z,14.31
2022-11-24T18:06:14.368Z,14.26
2022-11-24T18:11:57.249Z,14.22
2022-11-24T18:17:40.261Z,14.37
2022-11-24T18:23:23.482Z,14.25
2022-11-24T18:29:06.645Z,14.17
2022-11-24T18:34:49.544Z,14.1
2022-11-24T18:40:32.379Z,14.05
2022-11-24T18:46:16.602Z,14.02
2022-11-24T18:52:00.015Z,14
2022-11-24T18:57:43.013Z,13.98
2022-11-24T19:03:25.996Z,13.96
2022-11-24T19:09:11.664Z,13.95
2022-11-24T19:14:54.546Z,13.97
2022-11-24T19:20:37.820Z,13.98
2022-11-24T19:26:21.083Z,14
2022-11-24T19:32:04.747Z,14.01
2022-11-24T19:37:47.842Z,14.03
2022-11-24T19:43:32.084Z,14.03
2022-11-24T19:49:16.010Z,14.02
2022-11-24T19:54:58.959Z,14.02
2022-11-24T20:00:42.167Z,14.07
2022-11-24T20:06:26.191Z,14.1
2022-11-24T20:12:09.844Z,14.09
2022-11-24T20:17:53.975Z,14.05
2022-11-24T20:23:36.970Z,14.03
2022-11-24T20:29:20.333Z,14.02
2022-11-24T20:35:03.567Z,14.01
2022-11-24T20:40:46.709Z,14
2022-11-24T20:46:30.687Z,14.01
2022-11-24T20:52:13.694Z,14.02
2022-11-24T20:57:56.856Z,14.04
2022-11-24T21:03:43.227Z,14.02
2022-11-24T21:09:26.267Z,14.03
2022-11-24T21:15:09.871Z,14.05
2022-11-24T21:20:53.221Z,14.07
2022-11-24T21:26:38.549Z,14.15
2022-11-24T21:32:21.750Z,14.16
2022-11-24T21:38:04.855Z,14.2
2022-11-24T21:43:48.102Z,14.21
2022-11-24T21:49:31.351Z,14.21
2022-11-24T21:55:14.773Z,14.21
2022-11-24T22:01:00.764Z,14.22
2022-11-24T22:06:44.513Z,14.24
2022-11-24T22:12:28.456Z,14.25
2022-11-24T22:18:11.704Z,14.24
2022-11-24T22:23:54.973Z,14.25
2022-11-24T22:29:38.088Z,14.28
2022-11-24T22:35:21.137Z,14.28
2022-11-24T22:41:07.623Z,14.28
2022-11-24T22:46:50.689Z,14.32
2022-11-24T22:52:33.793Z,14.33
2022-11-24T22:58:17.054Z,14.34
2022-11-24T23:04:00.278Z,14.35
2022-11-24T23:09:43.650Z,14.37
2022-11-24T23:15:26.708Z,14.37
2022-11-24T23:21:11.109Z,14.37
2022-11-24T23:26:54.275Z,14.39
2022-11-24T23:32:37.374Z,14.41
2022-11-24T23:38:20.680Z,14.39
2022-11-24T23:44:04.301Z,14.38
2022-11-24T23:49:48.243Z,14.41
2022-11-24T23:55:31.789Z,14.41
